METAR Data
IDs: Format: Raw Decoded Include TAF

Data at: 2056 UTC 17 Nov 2019

PKWA 172040Z AUTO 10013KT 10SM SCT026 30/25 A2986 RMK AO2 T02950245